createdAt,value
2023-03-06T00:00:05.194Z,55.45
2023-03-06T00:03:04.638Z,55.68
2023-03-06T00:05:37.503Z,57.28
2023-03-06T00:08:10.470Z,59.33
2023-03-06T00:10:43.551Z,60.68
2023-03-06T00:13:19.274Z,64.54
2023-03-06T00:15:52.162Z,67.61
2023-03-06T00:18:24.882Z,66.02
2023-03-06T00:21:00.730Z,63.08
2023-03-06T00:23:33.395Z,60.74
2023-03-06T00:26:08.523Z,57.44
2023-03-06T00:28:42.208Z,54.95
2023-03-06T00:31:15.102Z,55.45
2023-03-06T00:33:48.026Z,56.69
2023-03-06T00:36:21.186Z,58.26
2023-03-06T00:38:55.707Z,59.69
2023-03-06T00:41:30.909Z,60.32
2023-03-06T00:44:03.881Z,63.43
2023-03-06T00:46:36.657Z,67.44
2023-03-06T00:49:09.735Z,66.34
2023-03-06T00:51:44.891Z,63.82
2023-03-06T00:54:18.015Z,61.64
2023-03-06T00:56:53.468Z,58.26
2023-03-06T00:59:27.671Z,55.45
2023-03-06T01:02:01.182Z,55.41
2023-03-06T01:04:34.358Z,56.31
2023-03-06T01:07:07.429Z,57.47
2023-03-06T01:09:40.284Z,58.73
2023-03-06T01:12:13.393Z,59.82
2023-03-06T01:14:47.515Z,63.15
2023-03-06T01:17:20.542Z,64.89
2023-03-06T01:19:53.465Z,63.80
2023-03-06T01:22:26.272Z,66.01
2023-03-06T01:24:58.996Z,64.36
2023-03-06T01:27:33.746Z,63.37
2023-03-06T01:30:07.639Z,63.36
2023-03-06T01:32:40.498Z,63.43
2023-03-06T01:35:14.584Z,63.17
2023-03-06T01:37:47.413Z,63.21
2023-03-06T01:40:21.122Z,63.55
2023-03-06T01:42:55.201Z,63.70
2023-03-06T01:46:02.599Z,63.86
2023-03-06T01:48:35.736Z,63.64
2023-03-06T01:51:08.705Z,63.98
2023-03-06T01:53:43.443Z,64.13
2023-03-06T01:56:17.262Z,64.41
2023-03-06T01:58:51.589Z,64.68
2023-03-06T02:01:24.764Z,64.83
2023-03-06T02:03:58.531Z,64.96
2023-03-06T02:06:32.171Z,65.14
2023-03-06T02:09:09.560Z,65.19
2023-03-06T02:11:44.415Z,65.41
2023-03-06T02:14:18.621Z,65.72
2023-03-06T02:16:51.943Z,65.99
2023-03-06T02:19:39.409Z,66.10
2023-03-06T02:22:12.172Z,66.10
2023-03-06T02:24:53.241Z,66.23
2023-03-06T02:27:28.031Z,66.26
2023-03-06T02:30:01.382Z,66.38
2023-03-06T02:32:34.900Z,66.45
2023-03-06T02:35:19.238Z,66.47
2023-03-06T02:37:52.996Z,66.47
2023-03-06T02:40:28.630Z,66.55
2023-03-06T02:43:02.649Z,66.70
2023-03-06T02:45:38.779Z,66.91
2023-03-06T02:48:12.303Z,67.12
2023-03-06T02:50:46.285Z,67.45
2023-03-06T02:53:21.443Z,67.84
2023-03-06T02:55:53.971Z,68.27
2023-03-06T02:58:29.418Z,68.42
2023-03-06T03:01:02.232Z,68.54
2023-03-06T03:03:35.365Z,68.63
2023-03-06T03:06:11.425Z,68.80
2023-03-06T03:08:44.318Z,68.68
2023-03-06T03:11:17.704Z,68.76
2023-03-06T03:13:50.805Z,68.76
2023-03-06T03:16:27.909Z,68.88
2023-03-06T03:19:03.242Z,68.88
2023-03-06T03:21:36.790Z,68.79
2023-03-06T03:24:10.656Z,68.69
2023-03-06T03:26:43.537Z,68.51
2023-03-06T03:29:20.453Z,68.45
2023-03-06T03:31:53.343Z,68.20
2023-03-06T03:34:29.715Z,67.95
2023-03-06T03:37:03.130Z,67.80
2023-03-06T03:39:37.560Z,67.90
2023-03-06T03:42:10.838Z,67.92
2023-03-06T03:44:44.673Z,68.23
2023-03-06T03:47:17.497Z,68.39
2023-03-06T03:49:50.381Z,68.50
2023-03-06T03:52:25.692Z,68.57
2023-03-06T03:54:58.798Z,68.68
2023-03-06T03:57:31.869Z,68.84
2023-03-06T04:00:08.141Z,69.12
2023-03-06T04:02:48.275Z,69.39
2023-03-06T04:05:41.338Z,69.59
2023-03-06T04:08:14.871Z,69.84
2023-03-06T04:10:51.584Z,69.87
2023-03-06T04:13:26.111Z,69.95
2023-03-06T04:16:04.080Z,70.09
2023-03-06T04:18:37.886Z,70.21
2023-03-06T04:21:11.263Z,70.36
2023-03-06T04:23:44.804Z,70.40
2023-03-06T04:26:17.776Z,70.52
2023-03-06T04:28:51.296Z,70.53
2023-03-06T04:31:24.728Z,70.61
2023-03-06T04:33:57.738Z,70.73
2023-03-06T04:36:33.741Z,70.82
2023-03-06T04:39:10.692Z,70.84
2023-03-06T04:41:43.744Z,70.98
2023-03-06T04:44:16.511Z,70.96
2023-03-06T04:46:52.491Z,71.04
2023-03-06T04:49:25.357Z,71.01
2023-03-06T04:51:58.195Z,71.03
2023-03-06T04:54:30.923Z,71.03
2023-03-06T04:57:04.175Z,71.06
2023-03-06T04:59:39.297Z,71.14
2023-03-06T05:02:12.002Z,71.13
2023-03-06T05:04:45.073Z,71.26
2023-03-06T05:07:17.804Z,71.35
2023-03-06T05:09:50.387Z,71.39
2023-03-06T05:12:24.321Z,71.35
2023-03-06T05:14:57.285Z,71.33
2023-03-06T05:17:30.379Z,71.33
2023-03-06T05:20:06.207Z,71.34
2023-03-06T05:22:39.106Z,71.46
2023-03-06T05:25:14.811Z,71.53
2023-03-06T05:27:48.205Z,71.91
2023-03-06T05:30:23.399Z,72.13
2023-03-06T05:32:58.376Z,71.87
2023-03-06T05:35:45.866Z,71.52
2023-03-06T05:38:24.494Z,71.26
2023-03-06T05:40:57.392Z,70.98
2023-03-06T05:43:33.357Z,70.48
2023-03-06T05:46:10.544Z,70.27
2023-03-06T05:48:45.326Z,70.29
2023-03-06T05:51:19.673Z,70.08
2023-03-06T05:53:52.570Z,70.20
2023-03-06T05:56:25.399Z,69.98
2023-03-06T05:58:59.576Z,69.99
2023-03-06T06:01:32.221Z,70.02
2023-03-06T06:04:05.010Z,70.13
2023-03-06T06:06:37.838Z,70.40
2023-03-06T06:09:13.989Z,70.23
2023-03-06T06:11:47.178Z,69.96
2023-03-06T06:14:19.958Z,69.61
2023-03-06T06:16:53.551Z,69.10
2023-03-06T06:19:29.601Z,68.61
2023-03-06T06:22:04.117Z,68.34
2023-03-06T06:24:36.931Z,68.06
2023-03-06T06:27:10.400Z,67.80
2023-03-06T06:29:43.399Z,67.64
2023-03-06T06:32:16.411Z,67.69
2023-03-06T06:34:49.454Z,67.41
2023-03-06T06:37:22.312Z,67.48
2023-03-06T06:39:55.180Z,67.34
2023-03-06T06:42:36.984Z,67.13
2023-03-06T06:45:14.297Z,66.87
2023-03-06T06:47:47.127Z,66.71
2023-03-06T06:50:20.178Z,66.60
2023-03-06T06:52:53.088Z,66.51
2023-03-06T06:55:25.865Z,66.29
2023-03-06T06:57:58.876Z,66.12
2023-03-06T07:00:32.275Z,66.09
2023-03-06T07:03:05.298Z,66.17
2023-03-06T07:05:38.077Z,66.22
2023-03-06T07:08:11.013Z,66.24
2023-03-06T07:10:43.963Z,65.98
2023-03-06T07:13:17.574Z,65.99
2023-03-06T07:15:50.722Z,66.23
2023-03-06T07:18:23.236Z,66.33
2023-03-06T07:20:56.986Z,66.32
2023-03-06T07:23:30.582Z,66.47
2023-03-06T07:26:03.446Z,66.64
2023-03-06T07:28:51.268Z,66.69
2023-03-06T07:31:27.545Z,66.88
2023-03-06T07:34:00.529Z,66.58
2023-03-06T07:36:36.042Z,66.68
2023-03-06T07:39:09.058Z,66.37
2023-03-06T07:41:42.121Z,66.18
2023-03-06T07:44:15.012Z,65.90
2023-03-06T07:46:49.125Z,65.55
2023-03-06T07:49:21.867Z,65.28
2023-03-06T07:51:54.380Z,64.96
2023-03-06T07:54:27.116Z,64.57
2023-03-06T07:57:01.813Z,64.59
2023-03-06T07:59:34.553Z,64.21
2023-03-06T08:02:07.301Z,64.02
2023-03-06T08:04:39.985Z,63.63
2023-03-06T08:07:13.374Z,63.17
2023-03-06T08:09:47.449Z,63.65
2023-03-06T08:12:19.948Z,62.87
2023-03-06T08:14:52.525Z,62.45
2023-03-06T08:17:25.368Z,62.11
2023-03-06T08:19:58.154Z,61.67
2023-03-06T08:22:31.926Z,61.49
2023-03-06T08:25:06.063Z,61.51
2023-03-06T08:27:39.186Z,60.55
2023-03-06T08:30:15.081Z,59.90
2023-03-06T08:32:47.992Z,59.22
2023-03-06T08:35:22.592Z,58.36
2023-03-06T08:37:55.214Z,58.68
2023-03-06T08:40:30.720Z,59.47
2023-03-06T08:43:04.128Z,59.27
2023-03-06T08:45:36.827Z,60.53
2023-03-06T08:48:09.369Z,61.33
2023-03-06T08:50:43.899Z,60.53
2023-03-06T08:53:16.648Z,60.21
2023-03-06T08:55:49.817Z,60.55
2023-03-06T08:58:22.638Z,61.33
2023-03-06T09:00:55.613Z,60.32
2023-03-06T09:03:28.297Z,60.59
2023-03-06T09:06:02.501Z,60.11
2023-03-06T09:08:35.194Z,60.22
2023-03-06T09:11:09.584Z,60.26
2023-03-06T09:13:44.569Z,60.83
2023-03-06T09:16:17.347Z,61.44
2023-03-06T09:18:54.100Z,60.86
2023-03-06T09:21:28.813Z,60.54
2023-03-06T09:24:03.942Z,61.89
2023-03-06T09:26:46.171Z,61.20
2023-03-06T09:29:20.158Z,60.67
2023-03-06T09:31:52.684Z,60.77
2023-03-06T09:34:27.790Z,60.47
2023-03-06T09:37:03.053Z,60.94
2023-03-06T09:39:35.847Z,60.80
2023-03-06T09:42:14.917Z,60.78
2023-03-06T09:44:53.203Z,61.61
2023-03-06T09:47:51.831Z,61.16
2023-03-06T09:50:35.455Z,61.33
2023-03-06T09:53:33.984Z,61.41
2023-03-06T09:56:14.990Z,61.74
2023-03-06T09:58:52.909Z,61.45
2023-03-06T10:01:29.464Z,60.20
2023-03-06T10:04:10.693Z,59.60
2023-03-06T10:06:50.399Z,60.43
2023-03-06T10:09:26.659Z,60.15
2023-03-06T10:12:02.182Z,58.78
2023-03-06T10:14:39.344Z,58.76
2023-03-06T10:17:21.528Z,58.63
2023-03-06T10:19:55.458Z,59.04
2023-03-06T10:22:33.133Z,58.51
2023-03-06T10:25:14.443Z,57.87
2023-03-06T10:27:51.391Z,57.85
2023-03-06T10:30:35.108Z,58.20
2023-03-06T10:33:19.456Z,58.26
2023-03-06T10:35:55.022Z,58.17
2023-03-06T10:38:38.496Z,57.33
2023-03-06T10:41:23.187Z,57.58
2023-03-06T10:44:25.729Z,58.23
2023-03-06T10:46:58.470Z,57.48
2023-03-06T10:49:34.664Z,56.63
2023-03-06T10:52:22.083Z,56.95
2023-03-06T10:55:27.648Z,56.55
2023-03-06T10:58:17.796Z,57.01
2023-03-06T11:01:01.148Z,56.49
2023-03-06T11:03:34.348Z,56.03
2023-03-06T11:06:13.080Z,55.24
2023-03-06T11:08:47.515Z,55.50
2023-03-06T11:11:37.084Z,55.48
2023-03-06T11:14:18.509Z,55.84
2023-03-06T11:16:53.585Z,55.24
2023-03-06T11:19:29.810Z,55.32
2023-03-06T11:22:19.392Z,55.24
2023-03-06T11:24:55.438Z,55.11
2023-03-06T11:27:35.125Z,55.03
2023-03-06T11:30:19.146Z,54.97
2023-03-06T11:32:56.551Z,54.88
2023-03-06T11:35:35.856Z,54.05
2023-03-06T11:38:18.039Z,53.23
2023-03-06T11:40:55.876Z,52.04
2023-03-06T11:43:37.053Z,51.24
2023-03-06T11:46:17.752Z,51.98
2023-03-06T11:48:58.465Z,52.06
2023-03-06T11:51:36.247Z,52.20
2023-03-06T11:54:10.988Z,52.40
2023-03-06T11:56:53.223Z,52.38
2023-03-06T11:59:52.381Z,52.62
2023-03-06T12:02:39.561Z,52.75
2023-03-06T12:05:28.490Z,52.49
2023-03-06T12:08:12.878Z,52.35
2023-03-06T12:10:52.387Z,52.04
2023-03-06T12:13:42.534Z,52.18
2023-03-06T12:16:42.454Z,51.81
2023-03-06T12:19:33.322Z,52.03
2023-03-06T12:22:17.242Z,51.43
2023-03-06T12:25:07.922Z,50.46
2023-03-06T12:27:47.494Z,50.14
2023-03-06T12:30:33.507Z,50.08
2023-03-06T12:33:21.216Z,50.29
2023-03-06T12:36:15.549Z,49.49
2023-03-06T12:39:01.140Z,50.06
2023-03-06T12:41:44.884Z,49.80
2023-03-06T12:44:36.063Z,49.82
2023-03-06T12:47:13.011Z,49.87
2023-03-06T12:49:51.519Z,49.42
2023-03-06T12:52:30.512Z,49.09
2023-03-06T12:55:07.299Z,49.14
2023-03-06T12:57:41.822Z,49.43
2023-03-06T13:00:58.711Z,49.75
2023-03-06T13:03:54.641Z,49.99
2023-03-06T13:06:52.162Z,49.77
2023-03-06T13:09:34.815Z,49.37
2023-03-06T13:12:29.994Z,49.87
2023-03-06T13:15:20.781Z,49.49
2023-03-06T13:17:53.530Z,49.42
2023-03-06T13:20:40.948Z,48.95
2023-03-06T13:23:44.080Z,49.25
2023-03-06T13:26:55.431Z,48.87
2023-03-06T13:29:55.122Z,49.18
2023-03-06T13:32:34.994Z,48.92
2023-03-06T13:35:49.685Z,48.76
2023-03-06T13:39:07.344Z,48.25
2023-03-06T13:41:57.372Z,48.60
2023-03-06T13:44:51.153Z,48.01
2023-03-06T13:50:50.071Z,48.77
2023-03-06T13:53:55.309Z,48.62
2023-03-06T13:57:00.514Z,48.59
2023-03-06T14:00:03.087Z,48.40
2023-03-06T14:03:06.656Z,48.86
2023-03-06T14:05:47.467Z,48.74
2023-03-06T14:08:22.025Z,48.04
2023-03-06T14:11:06.187Z,47.85
2023-03-06T14:13:49.109Z,47.49
2023-03-06T14:16:24.959Z,47.27
2023-03-06T14:18:58.833Z,47.16
2023-03-06T14:21:39.516Z,47.01
2023-03-06T14:24:20.321Z,46.42
2023-03-06T14:26:54.306Z,46.47
2023-03-06T14:29:29.204Z,46.10
2023-03-06T14:32:06.074Z,45.99
2023-03-06T14:34:45.584Z,45.65
2023-03-06T14:37:26.939Z,46.05
2023-03-06T14:39:59.773Z,45.85
2023-03-06T14:42:33.172Z,45.52
2023-03-06T14:45:21.610Z,44.98
2023-03-06T14:47:55.238Z,45.09
2023-03-06T14:50:30.345Z,45.34
2023-03-06T14:53:07.785Z,45.00
2023-03-06T14:55:51.742Z,45.57
2023-03-06T14:58:31.158Z,45.51
2023-03-06T15:01:07.225Z,45.67
2023-03-06T15:03:48.896Z,46.10
2023-03-06T15:06:21.464Z,47.40
2023-03-06T15:09:02.463Z,48.14
2023-03-06T15:12:00.363Z,49.80
2023-03-06T15:14:38.867Z,50.81
2023-03-06T15:17:27.540Z,51.98
2023-03-06T15:20:02.761Z,53.13
2023-03-06T15:22:39.018Z,53.92
2023-03-06T15:25:26.851Z,54.49
2023-03-06T15:28:02.967Z,55.00
2023-03-06T15:30:37.135Z,55.50
2023-03-06T15:33:26.592Z,54.52
2023-03-06T15:36:01.944Z,56.16
2023-03-06T15:38:41.993Z,57.06
2023-03-06T15:41:29.833Z,57.46
2023-03-06T15:44:04.351Z,57.51
2023-03-06T15:46:37.805Z,57.75
2023-03-06T15:49:18.735Z,58.09
2023-03-06T15:51:53.774Z,57.82
2023-03-06T15:54:26.692Z,58.31
2023-03-06T15:57:01.197Z,58.82
2023-03-06T15:59:44.931Z,58.91
2023-03-06T16:02:22.056Z,59.09
2023-03-06T16:04:55.109Z,59.32
2023-03-06T16:07:29.300Z,59.81
2023-03-06T16:10:02.043Z,59.78
2023-03-06T16:12:35.325Z,59.92
2023-03-06T16:15:17.910Z,60.39
2023-03-06T16:17:53.050Z,60.72
2023-03-06T16:20:28.175Z,61.21
2023-03-06T16:23:01.238Z,61.61
2023-03-06T16:25:34.386Z,62.46
2023-03-06T16:28:11.680Z,63.56
2023-03-06T16:30:53.680Z,63.78
2023-03-06T16:33:36.617Z,64.11
2023-03-06T16:36:18.025Z,63.60
2023-03-06T16:38:52.018Z,62.95
2023-03-06T16:41:24.643Z,62.14
2023-03-06T16:43:57.217Z,62.24
2023-03-06T16:46:30.624Z,61.95
2023-03-06T16:49:15.220Z,61.77
2023-03-06T16:51:50.412Z,61.62
2023-03-06T16:54:26.179Z,61.71
2023-03-06T16:56:58.792Z,61.86
2023-03-06T16:59:31.770Z,62.17
2023-03-06T17:02:04.561Z,62.58
2023-03-06T17:04:37.612Z,62.30
2023-03-06T17:07:10.454Z,62.45
2023-03-06T17:09:43.635Z,62.93
2023-03-06T17:12:16.728Z,62.91
2023-03-06T17:14:49.763Z,62.46
2023-03-06T17:17:22.563Z,61.96
2023-03-06T17:20:16.885Z,61.72
2023-03-06T17:22:51.212Z,62.01
2023-03-06T17:25:35.674Z,62.86
2023-03-06T17:28:08.641Z,63.94
2023-03-06T17:31:03.515Z,64.21
2023-03-06T17:33:39.450Z,65.10
2023-03-06T17:36:22.673Z,65.69
2023-03-06T17:39:05.644Z,66.53
2023-03-06T17:41:38.354Z,67.16
2023-03-06T17:44:12.435Z,67.84
2023-03-06T17:46:48.596Z,68.61
2023-03-06T17:49:24.099Z,69.36
2023-03-06T17:51:59.878Z,69.78
2023-03-06T17:54:33.343Z,70.29
2023-03-06T17:57:06.681Z,70.82
2023-03-06T17:59:46.839Z,71.40
2023-03-06T18:02:21.285Z,71.88
2023-03-06T18:04:56.538Z,72.31
2023-03-06T18:07:29.203Z,72.72
2023-03-06T18:10:01.736Z,73.05
2023-03-06T18:12:34.644Z,73.22
2023-03-06T18:15:12.572Z,73.49
2023-03-06T18:17:45.241Z,73.77
2023-03-06T18:20:20.223Z,74.12
2023-03-06T18:23:04.734Z,74.37
2023-03-06T18:25:47.634Z,74.56
2023-03-06T18:28:20.447Z,74.62
2023-03-06T18:30:58.741Z,74.57
2023-03-06T18:33:33.018Z,74.58
2023-03-06T18:36:09.772Z,74.41
2023-03-06T18:38:44.091Z,74.50
2023-03-06T18:41:38.429Z,74.47
2023-03-06T18:44:31.266Z,74.33
2023-03-06T18:47:25.300Z,74.46
2023-03-06T18:50:18.873Z,74.46
2023-03-06T18:53:12.766Z,74.59
2023-03-06T18:55:56.733Z,74.77
2023-03-06T18:58:50.434Z,74.84
2023-03-06T19:01:25.560Z,75.09
2023-03-06T19:04:00.239Z,75.32
2023-03-06T19:06:33.307Z,75.43
2023-03-06T19:09:07.019Z,75.64
2023-03-06T19:11:39.826Z,75.80
2023-03-06T19:14:15.467Z,75.86
2023-03-06T19:16:50.475Z,75.96
2023-03-06T19:19:26.381Z,75.98
2023-03-06T19:22:02.406Z,76.07
2023-03-06T19:24:55.302Z,76.01
2023-03-06T19:27:27.863Z,76.20
2023-03-06T19:30:17.529Z,76.18
2023-03-06T19:33:03.098Z,76.23
2023-03-06T19:35:55.987Z,76.25
2023-03-06T19:38:29.946Z,76.24
2023-03-06T19:41:16.349Z,76.21
2023-03-06T19:44:10.642Z,76.27
2023-03-06T19:47:03.369Z,76.29
2023-03-06T19:49:57.659Z,76.38
2023-03-06T19:52:33.264Z,76.52
2023-03-06T19:55:10.881Z,76.55
2023-03-06T19:57:46.703Z,76.53
2023-03-06T20:00:30.578Z,76.32
2023-03-06T20:03:05.779Z,76.28
2023-03-06T20:05:51.214Z,76.31
2023-03-06T20:08:44.712Z,76.19
2023-03-06T20:11:37.521Z,76.27
2023-03-06T20:14:30.442Z,76.32
2023-03-06T20:17:05.522Z,76.41
2023-03-06T20:19:48.167Z,76.49
2023-03-06T20:22:31.855Z,76.50
2023-03-06T20:25:08.524Z,76.56
2023-03-06T20:28:01.333Z,76.51
2023-03-06T20:30:54.219Z,76.52
2023-03-06T20:33:36.240Z,76.60
2023-03-06T20:36:18.828Z,76.62
2023-03-06T20:38:51.832Z,76.50
2023-03-06T20:41:34.826Z,76.37
2023-03-06T20:44:18.874Z,76.23
2023-03-06T20:46:52.224Z,76.15
2023-03-06T20:49:28.552Z,76.03
2023-03-06T20:52:31.619Z,75.94
2023-03-06T20:55:08.474Z,75.95
2023-03-06T20:58:01.386Z,75.94
2023-03-06T21:00:54.187Z,75.99
2023-03-06T21:03:27.130Z,75.97
2023-03-06T21:06:09.121Z,75.99
2023-03-06T21:09:01.402Z,76.10
2023-03-06T21:11:44.317Z,76.19
2023-03-06T21:14:20.747Z,76.24
2023-03-06T21:17:13.967Z,76.29
2023-03-06T21:20:00.564Z,76.34
2023-03-06T21:22:46.798Z,76.42
2023-03-06T21:25:25.280Z,76.52
2023-03-06T21:28:08.003Z,76.52
2023-03-06T21:30:49.353Z,76.53
2023-03-06T21:33:42.692Z,76.41
2023-03-06T21:36:37.306Z,76.29
2023-03-06T21:39:30.127Z,76.25
2023-03-06T21:42:24.144Z,76.15
2023-03-06T21:45:07.877Z,76.57
2023-03-06T21:48:01.462Z,76.84
2023-03-06T21:50:54.240Z,76.70
2023-03-06T21:53:48.069Z,76.45
2023-03-06T21:56:40.721Z,76.24
2023-03-06T21:59:33.476Z,75.76
2023-03-06T22:02:11.497Z,75.56
2023-03-06T22:04:53.368Z,75.27
2023-03-06T22:07:47.542Z,75.08
2023-03-06T22:10:42.857Z,74.92
2023-03-06T22:13:35.753Z,74.81
2023-03-06T22:16:28.840Z,74.76
2023-03-06T22:19:21.728Z,74.72
2023-03-06T22:22:04.996Z,74.68
2023-03-06T22:24:56.379Z,74.83
2023-03-06T22:27:33.298Z,75.00
2023-03-06T22:30:26.033Z,75.03
2023-03-06T22:33:01.904Z,75.22
2023-03-06T22:35:34.678Z,75.38
2023-03-06T22:38:08.277Z,75.48
2023-03-06T22:40:40.943Z,75.65
2023-03-06T22:43:13.654Z,75.67
2023-03-06T22:45:46.563Z,75.70
2023-03-06T22:48:19.082Z,75.81
2023-03-06T22:50:54.728Z,76.09
2023-03-06T22:53:27.273Z,76.40
2023-03-06T22:56:02.031Z,76.54
2023-03-06T22:58:37.342Z,76.72
2023-03-06T23:01:12.402Z,76.92
2023-03-06T23:03:48.231Z,77.23
2023-03-06T23:06:23.782Z,77.47
2023-03-06T23:08:58.110Z,77.53
2023-03-06T23:11:31.927Z,77.70
2023-03-06T23:14:22.972Z,77.77
2023-03-06T23:17:13.884Z,77.92
2023-03-06T23:20:10.034Z,77.96
2023-03-06T23:23:00.982Z,77.89
2023-03-06T23:25:48.992Z,77.77
2023-03-06T23:28:21.551Z,77.68
2023-03-06T23:30:54.280Z,77.48
2023-03-06T23:33:27.124Z,77.33
2023-03-06T23:36:02.742Z,77.25
2023-03-06T23:38:36.111Z,77.20
2023-03-06T23:41:11.887Z,77.29
2023-03-06T23:43:45.102Z,77.33
2023-03-06T23:46:18.646Z,77.36
2023-03-06T23:48:51.734Z,77.35
2023-03-06T23:51:25.125Z,77.34
2023-03-06T23:53:59.558Z,77.35
2023-03-06T23:56:32.326Z,77.26
2023-03-06T23:59:04.845Z,77.15
